createdAt,value
2019-04-06T00:03:01.645Z,34.57
2019-04-06T00:07:10.453Z,34.00
2019-04-06T00:11:19.267Z,33.30
2019-04-06T00:15:27.747Z,36.37
2019-04-06T00:19:36.231Z,35.00
2019-04-06T00:23:44.773Z,37.03
2019-04-06T00:27:53.589Z,35.87
2019-04-06T00:32:03.699Z,33.27
2019-04-06T00:36:12.471Z,33.20
2019-04-06T00:40:20.973Z,34.57
2019-04-06T00:44:29.505Z,32.63
2019-04-06T00:48:38.358Z,32.20
2019-04-06T00:52:46.837Z,33.13
2019-04-06T00:56:55.318Z,34.47
2019-04-06T01:01:04.402Z,36.20
2019-04-06T01:05:12.950Z,34.27
2019-04-06T01:09:21.687Z,33.30
2019-04-06T01:13:30.234Z,35.40
2019-04-06T01:17:38.720Z,31.80
2019-04-06T01:21:47.159Z,33.63
2019-04-06T01:26:06.306Z,35.17
2019-04-06T01:30:08.141Z,37.80
2019-04-06T01:34:16.610Z,34.70
2019-04-06T01:38:25.139Z,32.60
2019-04-06T01:42:33.609Z,32.83
2019-04-06T01:46:42.082Z,32.93
2019-04-06T01:50:50.534Z,35.00
2019-04-06T01:54:59.250Z,33.00
2019-04-06T01:59:07.889Z,34.60
2019-04-06T02:03:16.431Z,34.77
2019-04-06T02:07:25.289Z,31.83
2019-04-06T02:11:33.858Z,34.00
2019-04-06T02:15:42.413Z,32.77
2019-04-06T02:19:50.879Z,31.30
2019-04-06T02:23:59.375Z,32.70
2019-04-06T02:28:08.110Z,31.13
2019-04-06T02:32:23.969Z,36.07
2019-04-06T02:36:43.087Z,31.90
2019-04-06T02:41:05.251Z,33.30
2019-04-06T02:45:14.000Z,32.70
2019-04-06T02:49:22.621Z,33.10
2019-04-06T02:53:31.123Z,30.47
2019-04-06T02:57:39.645Z,31.80
2019-04-06T03:01:48.654Z,31.50
2019-04-06T03:05:57.246Z,30.97
2019-04-06T03:10:06.646Z,32.73
2019-04-06T03:14:15.618Z,33.60
2019-04-06T03:18:24.071Z,33.40
2019-04-06T03:22:32.585Z,29.03
2019-04-06T03:26:41.112Z,30.53
2019-04-06T03:30:49.657Z,33.43
2019-04-06T03:34:58.929Z,31.20
2019-04-06T03:39:07.592Z,33.37
2019-04-06T03:43:16.076Z,33.15
2019-04-06T03:47:24.652Z,29.40
2019-04-06T03:51:33.136Z,31.47
2019-04-06T03:55:41.616Z,35.13
2019-04-06T03:59:50.057Z,30.83
2019-04-06T04:03:59.095Z,36.83
2019-04-06T04:08:07.829Z,37.20
2019-04-06T04:12:16.607Z,34.37
2019-04-06T04:16:25.377Z,37.73
2019-04-06T04:20:34.183Z,34.23
2019-04-06T04:24:42.761Z,35.27
2019-04-06T04:28:51.257Z,33.70
2019-04-06T04:32:59.837Z,35.53
2019-04-06T04:37:08.347Z,33.87
2019-04-06T04:41:17.565Z,33.53
2019-04-06T04:45:26.215Z,34.17
2019-04-06T04:49:34.847Z,34.17
2019-04-06T04:53:43.398Z,37.20
2019-04-06T04:57:52.127Z,33.07
2019-04-06T05:02:00.613Z,33.20
2019-04-06T05:06:09.113Z,34.00
2019-04-06T05:10:17.619Z,32.23
2019-04-06T05:14:54.998Z,34.40
2019-04-06T05:19:03.488Z,34.53
2019-04-06T05:23:12.032Z,35.93
2019-04-06T05:27:20.491Z,30.47
2019-04-06T05:31:29.133Z,36.57
2019-04-06T05:35:37.817Z,36.07
2019-04-06T05:39:46.371Z,37.93
2019-04-06T05:43:54.888Z,40.00
2019-04-06T05:48:03.642Z,37.53
2019-04-06T05:52:12.087Z,32.40
2019-04-06T05:56:20.568Z,34.80
2019-04-06T06:00:29.049Z,35.67
2019-04-06T06:04:40.249Z,34.93
2019-04-06T06:08:47.802Z,38.70
2019-04-06T06:12:56.259Z,35.37
2019-04-06T06:17:04.744Z,33.27
2019-04-06T06:21:13.364Z,31.17
2019-04-06T06:25:21.880Z,28.93
2019-04-06T06:29:30.375Z,31.00
2019-04-06T06:33:38.873Z,35.47
2019-04-06T06:37:47.619Z,31.97
2019-04-06T06:41:56.380Z,32.03
2019-04-06T06:46:05.603Z,34.70
2019-04-06T06:50:14.206Z,30.07
2019-04-06T06:54:22.717Z,33.37
2019-04-06T06:58:31.289Z,29.47
2019-04-06T07:02:39.743Z,31.07
2019-04-06T07:06:48.349Z,32.30
2019-04-06T07:10:56.963Z,32.00
2019-04-06T07:15:07.558Z,30.73
2019-04-06T07:19:17.130Z,27.90
2019-04-06T07:23:25.893Z,27.80
2019-04-06T07:27:34.698Z,31.07
2019-04-06T07:31:43.253Z,29.60
2019-04-06T07:35:52.008Z,30.17
2019-04-06T07:40:00.544Z,31.00
2019-04-06T07:44:09.020Z,26.90
2019-04-06T07:48:17.688Z,27.80
2019-04-06T07:52:26.208Z,27.50
2019-04-06T07:56:34.774Z,26.33
2019-04-06T08:00:43.251Z,27.70
2019-04-06T08:04:51.717Z,27.03
2019-04-06T08:09:00.198Z,25.63
2019-04-06T08:13:08.671Z,27.30
2019-04-06T08:17:17.528Z,28.73
2019-04-06T08:21:26.016Z,28.50
2019-04-06T08:25:34.886Z,27.30
2019-04-06T08:29:43.415Z,25.93
2019-04-06T08:33:51.934Z,27.07
2019-04-06T08:38:00.428Z,25.67
2019-04-06T08:42:08.970Z,25.63
2019-04-06T08:46:17.729Z,24.98
2019-04-06T08:50:26.453Z,31.60
2019-04-06T08:54:34.940Z,24.83
2019-04-06T08:59:11.249Z,24.60
2019-04-06T09:03:13.336Z,24.83
2019-04-06T09:07:22.277Z,24.47
2019-04-06T09:11:30.741Z,23.20
2019-04-06T09:15:39.247Z,23.90
2019-04-06T09:19:48.443Z,23.30
2019-04-06T09:23:58.311Z,26.57
2019-04-06T09:28:07.128Z,24.53
2019-04-06T09:32:15.614Z,23.30
2019-04-06T09:36:24.131Z,24.57
2019-04-06T09:40:32.634Z,25.70
2019-04-06T09:44:45.742Z,23.97
2019-04-06T09:48:56.033Z,26.13
2019-04-06T09:53:12.268Z,23.70
2019-04-06T09:57:25.070Z,25.53
2019-04-06T10:01:38.945Z,27.07
2019-04-06T10:06:03.789Z,25.23
2019-04-06T10:10:23.731Z,26.73
2019-04-06T10:14:39.888Z,25.13
2019-04-06T10:18:50.056Z,27.03
2019-04-06T10:23:00.567Z,23.73
2019-04-06T10:27:19.722Z,24.30
2019-04-06T10:31:39.011Z,24.50
2019-04-06T10:36:14.756Z,24.50
2019-04-06T10:40:40.152Z,26.50
2019-04-06T10:44:53.050Z,25.60
2019-04-06T10:49:09.010Z,24.83
2019-04-06T10:53:19.138Z,26.37
2019-04-06T10:57:38.015Z,26.17
2019-04-06T11:01:50.767Z,27.40
2019-04-06T11:06:04.144Z,25.10
2019-04-06T11:10:20.607Z,27.07
2019-04-06T11:14:31.141Z,26.43
2019-04-06T11:18:56.782Z,23.60
2019-04-06T11:23:12.731Z,24.90
2019-04-06T11:27:34.991Z,24.87
2019-04-06T11:31:51.019Z,24.97
2019-04-06T11:36:07.219Z,24.93
2019-04-06T11:40:35.480Z,25.80
2019-04-06T11:44:52.085Z,25.83
2019-04-06T11:49:07.994Z,28.00
2019-04-06T11:53:27.275Z,24.70
2019-04-06T11:57:49.818Z,26.07
2019-04-06T12:02:02.829Z,24.87
2019-04-06T12:06:15.827Z,24.80
2019-04-06T12:10:25.936Z,25.80
2019-04-06T12:14:38.990Z,25.23
2019-04-06T12:18:49.102Z,27.90
2019-04-06T12:23:15.654Z,25.27
2019-04-06T12:27:42.360Z,27.73
2019-04-06T12:31:52.557Z,26.73
2019-04-06T12:36:08.878Z,26.00
2019-04-06T12:40:21.888Z,26.45
2019-04-06T12:44:38.006Z,25.53
2019-04-06T12:48:56.800Z,25.40
2019-04-06T12:53:16.145Z,29.67
2019-04-06T12:57:41.878Z,26.67
2019-04-06T13:01:55.699Z,27.30
2019-04-06T13:06:22.567Z,25.23
2019-04-06T13:10:32.668Z,26.70
2019-04-06T13:14:57.860Z,27.53
2019-04-06T13:19:24.436Z,26.90
2019-04-06T13:23:34.526Z,26.87
2019-04-06T13:27:44.676Z,26.37
2019-04-06T13:31:57.372Z,27.60
2019-04-06T13:36:13.487Z,30.40
2019-04-06T13:40:29.885Z,27.67
2019-04-06T13:44:40.275Z,26.20
2019-04-06T13:49:07.025Z,27.70
2019-04-06T13:53:29.219Z,28.23
2019-04-06T13:57:39.367Z,27.73
2019-04-06T14:01:49.478Z,29.47
2019-04-06T14:06:11.992Z,28.47
2019-04-06T14:10:25.625Z,26.60
2019-04-06T14:14:41.476Z,27.90
2019-04-06T14:19:10.940Z,26.97
2019-04-06T14:23:21.201Z,28.70
2019-04-06T14:27:34.439Z,29.10
2019-04-06T14:31:44.565Z,27.30
2019-04-06T14:35:57.627Z,32.63
2019-04-06T14:40:25.492Z,30.90
2019-04-06T14:44:41.789Z,31.57
2019-04-06T14:49:17.223Z,28.93
2019-04-06T14:53:19.249Z,31.27
2019-04-06T14:57:48.039Z,31.73
2019-04-06T15:01:59.642Z,33.57
2019-04-06T15:06:28.439Z,33.60
2019-04-06T15:10:38.557Z,34.00
2019-04-06T15:14:48.737Z,34.87
2019-04-06T15:18:59.253Z,35.70
2019-04-06T15:23:09.375Z,35.30
2019-04-06T15:27:22.221Z,33.93
2019-04-06T15:31:35.154Z,33.67
2019-04-06T15:36:03.513Z,31.70
2019-04-06T15:40:13.676Z,30.70
2019-04-06T15:44:26.494Z,32.10
2019-04-06T15:48:52.620Z,31.53
2019-04-06T15:53:21.067Z,29.40
2019-04-06T15:57:33.914Z,28.10
2019-04-06T16:01:44.041Z,24.47
2019-04-06T16:05:57.755Z,23.07
2019-04-06T16:10:08.872Z,22.50
2019-04-06T16:14:27.888Z,22.03
2019-04-06T16:18:54.412Z,22.87
2019-04-06T16:23:20.796Z,21.90
2019-04-06T16:27:30.976Z,23.67
2019-04-06T16:31:41.142Z,21.60
2019-04-06T16:35:54.572Z,20.70
2019-04-06T16:40:17.412Z,22.37
2019-04-06T16:44:29.999Z,20.77
2019-04-06T16:48:56.901Z,19.77
2019-04-06T16:53:07.178Z,20.50
2019-04-06T16:57:17.304Z,20.87
2019-04-06T17:01:30.888Z,21.03
2019-04-06T17:05:59.282Z,22.40
2019-04-06T17:10:16.023Z,22.43
2019-04-06T17:14:42.763Z,25.67
2019-04-06T17:23:46.676Z,27.17
2019-04-06T17:28:06.044Z,29.27
2019-04-06T17:32:33.966Z,27.10
2019-04-06T17:36:39.430Z,25.30
2019-04-06T17:40:49.892Z,26.10
2019-04-06T17:45:00.234Z,28.83
2019-04-06T17:49:10.628Z,29.97
2019-04-06T17:53:29.475Z,29.90
2019-04-06T17:57:39.586Z,27.43
2019-04-06T18:01:57.137Z,27.57
2019-04-06T18:06:19.056Z,28.80
2019-04-06T18:10:45.263Z,27.87
2019-04-06T18:14:54.116Z,30.73
2019-04-06T18:19:02.688Z,30.48
2019-04-06T18:23:11.178Z,32.13
2019-04-06T18:27:19.675Z,33.53
2019-04-06T18:31:48.319Z,29.23
2019-04-06T18:35:57.351Z,35.10
2019-04-06T18:40:09.351Z,33.33
2019-04-06T18:44:17.839Z,32.97
2019-04-06T18:48:26.323Z,34.30
2019-04-06T18:52:35.014Z,39.40
2019-04-06T18:56:43.926Z,35.00
2019-04-06T19:00:52.599Z,33.87
2019-04-06T19:05:01.060Z,33.00
2019-04-06T19:09:20.667Z,34.27
2019-04-06T19:13:20.561Z,34.97
2019-04-06T19:17:29.255Z,32.60
2019-04-06T19:21:38.053Z,36.40
2019-04-06T19:25:46.538Z,34.87
2019-04-06T19:29:55.233Z,37.40
2019-04-06T19:34:03.788Z,35.45
2019-04-06T19:38:12.388Z,38.50
2019-04-06T19:42:21.521Z,42.00
2019-04-06T19:46:30.030Z,39.73
2019-04-06T19:50:38.518Z,40.57
2019-04-06T19:54:47.089Z,40.70
2019-04-06T19:58:55.586Z,38.43
2019-04-06T20:03:04.341Z,37.33
2019-04-06T20:07:12.883Z,37.40
2019-04-06T20:11:22.064Z,40.85
2019-04-06T20:15:30.979Z,39.00
2019-04-06T20:19:39.474Z,41.67
2019-04-06T20:23:48.335Z,38.93
2019-04-06T20:27:56.933Z,37.47
2019-04-06T20:32:05.574Z,41.50
2019-04-06T20:36:14.571Z,39.03
2019-04-06T20:40:23.374Z,39.03
2019-04-06T20:44:32.415Z,40.50
2019-04-06T20:48:41.180Z,43.37
2019-04-06T20:52:50.401Z,43.23
2019-04-06T20:56:59.318Z,43.03
2019-04-06T21:01:07.902Z,43.43
2019-04-06T21:05:16.734Z,46.17
2019-04-06T21:09:25.805Z,45.83
2019-04-06T21:13:34.381Z,44.43
2019-04-06T21:17:42.846Z,43.27
2019-04-06T21:21:51.974Z,45.40
2019-04-06T21:26:00.636Z,43.80
2019-04-06T21:30:10.776Z,45.33
2019-04-06T21:34:19.461Z,47.20
2019-04-06T21:38:28.379Z,45.53
2019-04-06T21:42:37.631Z,44.43
2019-04-06T21:46:46.268Z,42.43
2019-04-06T21:50:54.890Z,48.97
2019-04-06T21:55:04.921Z,43.97
2019-04-06T21:59:15.803Z,45.33
2019-04-06T22:03:23.682Z,41.33
2019-04-06T22:07:32.441Z,47.40
2019-04-06T22:11:40.969Z,43.10
2019-04-06T22:15:49.414Z,45.83
2019-04-06T22:19:58.133Z,48.25
2019-04-06T22:24:06.771Z,46.00
2019-04-06T22:28:15.328Z,46.17
2019-04-06T22:32:24.478Z,45.00
2019-04-06T22:36:33.011Z,45.47
2019-04-06T22:40:41.892Z,48.30
2019-04-06T22:44:51.092Z,44.07
2019-04-06T22:49:00.146Z,47.03
2019-04-06T22:53:08.786Z,43.65
2019-04-06T22:57:17.320Z,45.73
2019-04-06T23:01:27.859Z,42.30
2019-04-06T23:05:40.718Z,43.20
2019-04-06T23:09:49.370Z,45.57
2019-04-06T23:13:58.105Z,45.10
2019-04-06T23:18:07.068Z,45.30
2019-04-06T23:22:15.850Z,41.23
2019-04-06T23:26:25.018Z,46.97
2019-04-06T23:30:33.952Z,43.37
2019-04-06T23:34:43.069Z,43.37
2019-04-06T23:38:52.092Z,42.80
2019-04-06T23:43:00.590Z,46.50
2019-04-06T23:47:09.066Z,42.50
2019-04-06T23:51:17.872Z,42.37
2019-04-06T23:55:26.329Z,43.60
2019-04-06T23:59:35.154Z,47.07
